TimeEST,TemperatureF,Dew PointF,Humidity,Sea Level PressureIn,VisibilityMPH,Wind Direction,Wind SpeedMPH,Gust SpeedMPH,PrecipitationIn,Events,Conditions,WindDirDegrees,DateUTC
12:33 AM,30.2,23.0,75,30.23,10.0,NNE,5.8,-,0.00,,Overcast,20,2012-11-30 05:33:00
12:54 AM,30.0,21.9,72,30.27,10.0,Calm,Calm,-,0.00,,Overcast,0,2012-11-30 05:54:00
1:54 AM,28.0,19.9,72,30.31,10.0,ENE,6.9,-,N/A,,Overcast,60,2012-11-30 06:54:00
2:54 AM,26.1,16.0,66,30.34,10.0,NNE,6.9,-,N/A,,Overcast,20,2012-11-30 07:54:00
3:54 AM,24.1,12.0,60,30.36,10.0,North,6.9,-,N/A,,Overcast,10,2012-11-30 08:54:00
4:54 AM,24.1,10.0,55,30.39,10.0,NNE,6.9,-,N/A,,Overcast,20,2012-11-30 09:54:00
5:09 AM,23.0,10.4,59,30.38,10.0,NNE,10.4,17.3,N/A,,Overcast,20,2012-11-30 10:09:00
5:54 AM,21.9,9.0,58,30.42,10.0,Variable,4.6,-,N/A,,Overcast,0,2012-11-30 10:54:00
6:54 AM,21.0,9.0,60,30.46,10.0,North,4.6,-,N/A,,Clear,350,2012-11-30 11:54:00
7:54 AM,19.9,7.0,57,30.50,10.0,North,4.6,-,N/A,,Clear,10,2012-11-30 12:54:00
8:54 AM,19.9,6.1,55,30.51,10.0,ENE,4.6,-,N/A,,Clear,60,2012-11-30 13:54:00
9:54 AM,21.9,3.0,44,30.53,10.0,NNE,4.6,-,N/A,,Clear,20,2012-11-30 14:54:00
10:54 AM,23.0,1.9,40,30.52,10.0,NW,4.6,-,N/A,,Clear,310,2012-11-30 15:54:00
11:54 AM,25.0,-0.0,34,30.51,10.0,North,5.8,-,N/A,,Clear,360,2012-11-30 16:54:00
12:54 PM,25.0,-2.9,30,30.51,10.0,Variable,3.5,-,N/A,,Scattered Clouds,0,2012-11-30 17:54:00
1:54 PM,25.0,-2.0,31,30.49,10.0,Variable,4.6,-,N/A,,Overcast,0,2012-11-30 18:54:00
2:54 PM,25.0,-2.0,31,30.51,10.0,North,4.6,-,N/A,,Overcast,10,2012-11-30 19:54:00
3:54 PM,24.1,-0.0,35,30.52,10.0,ENE,4.6,-,N/A,,Mostly Cloudy,60,2012-11-30 20:54:00
4:54 PM,24.1,3.9,42,30.52,10.0,ENE,4.6,-,N/A,,Overcast,70,2012-11-30 21:54:00
5:54 PM,24.1,1.9,38,30.54,10.0,ENE,3.5,-,N/A,,Overcast,60,2012-11-30 22:54:00
8:54 PM,21.9,3.9,46,30.58,10.0,ENE,3.5,-,N/A,,Overcast,70,2012-12-01 01:54:00
9:54 PM,21.9,3.9,46,30.58,10.0,NE,3.5,-,N/A,,Overcast,50,2012-12-01 02:54:00
10:54 PM,21.9,3.9,46,30.58,10.0,Calm,Calm,-,N/A,,Overcast,0,2012-12-01 03:54:00